createdAt,value
2018-12-15T00:00:24.421Z,-3.6
2018-12-15T00:01:24.713Z,-3.6
2018-12-15T00:02:24.610Z,-3.6
2018-12-15T00:03:24.512Z,-3.6
2018-12-15T00:04:24.408Z,-3.6
2018-12-15T00:05:24.399Z,-3.6
2018-12-15T00:06:24.292Z,-3.6
2018-12-15T00:07:24.186Z,-3.6
2018-12-15T00:08:24.081Z,-3.6
2018-12-15T00:09:24.004Z,-3.6
2018-12-15T00:10:23.886Z,-3.7
2018-12-15T00:11:24.189Z,-3.7
2018-12-15T00:12:24.068Z,-3.7
2018-12-15T00:13:23.966Z,-3.7
2018-12-15T00:14:23.880Z,-3.7
2018-12-15T00:15:23.772Z,-3.7
2018-12-15T00:16:23.660Z,-3.6
2018-12-15T00:17:23.548Z,-3.6
2018-12-15T00:18:23.434Z,-3.6
2018-12-15T00:19:23.386Z,-3.6
2018-12-15T00:20:23.271Z,-3.6
2018-12-15T00:21:23.578Z,-3.6
2018-12-15T00:22:23.532Z,-3.6
2018-12-15T00:23:23.410Z,-3.6
2018-12-15T00:24:23.319Z,-3.6
2018-12-15T00:25:23.226Z,-3.6
2018-12-15T00:26:23.140Z,-3.6
2018-12-15T00:27:23.041Z,-3.6
2018-12-15T00:28:22.928Z,-3.6
2018-12-15T00:29:22.820Z,-3.6
2018-12-15T00:30:22.723Z,-3.6
2018-12-15T00:31:23.037Z,-3.7
2018-12-15T00:41:24.166Z,-3
2018-12-15T00:42:24.040Z,-3.1
2018-12-15T00:43:23.922Z,-3.1
2018-12-15T00:44:23.792Z,-3.2
2018-12-15T00:45:23.666Z,-3.2
2018-12-15T00:46:23.579Z,-3.3
2018-12-15T00:47:23.464Z,-3.3
2018-12-15T00:48:23.347Z,-3.4
2018-12-15T00:49:23.235Z,-3.5
2018-12-15T00:50:23.099Z,-3.6
2018-12-15T00:51:23.512Z,-3.6
2018-12-15T00:52:23.404Z,-3.7
2018-12-15T00:53:23.279Z,-3.7
2018-12-15T00:54:23.185Z,-3.7
2018-12-15T00:55:23.078Z,-3.7
2018-12-15T00:56:22.969Z,-3.7
2018-12-15T00:57:22.867Z,-3.7
2018-12-15T00:58:22.753Z,-3.7
2018-12-15T00:59:22.638Z,-3.7
2018-12-15T01:00:22.535Z,-3.7
2018-12-15T01:01:22.833Z,-3.7
2018-12-15T01:02:22.744Z,-3.7
2018-12-15T01:03:22.639Z,-3.7
2018-12-15T01:04:22.553Z,-3.7
2018-12-15T01:05:22.430Z,-3.7
2018-12-15T01:06:22.315Z,-3.7
2018-12-15T01:07:22.193Z,-3.7
2018-12-15T01:08:22.096Z,-3.7
2018-12-15T01:09:21.999Z,-3.8
2018-12-15T01:10:21.885Z,-3.8
2018-12-15T01:11:22.173Z,-3.8
2018-12-15T01:12:22.056Z,-3.8
2018-12-15T01:13:22.023Z,-3.8
2018-12-15T01:14:21.917Z,-3.8
2018-12-15T01:15:21.801Z,-3.8
2018-12-15T01:16:21.702Z,-3.8
2018-12-15T01:17:24.474Z,-3.8
2018-12-15T01:18:24.370Z,-3.8
2018-12-15T01:19:24.243Z,-3.8
2018-12-15T01:20:24.120Z,-3.8
2018-12-15T01:21:24.447Z,-3.8
2018-12-15T01:22:24.340Z,-3.8
2018-12-15T01:23:24.264Z,-3.8
2018-12-15T01:24:24.162Z,-3.8
2018-12-15T01:25:24.055Z,-3.8
2018-12-15T01:26:23.926Z,-3.8
2018-12-15T01:27:23.798Z,-3.8
2018-12-15T01:28:23.682Z,-3.8
2018-12-15T01:29:23.578Z,-3.8
2018-12-15T01:30:23.471Z,-3.8
2018-12-15T01:31:23.822Z,-3.8
2018-12-15T01:32:23.918Z,-3.8
2018-12-15T01:33:23.802Z,-3.8
2018-12-15T01:34:23.716Z,-3.8
2018-12-15T01:35:23.602Z,-3.8
2018-12-15T01:36:23.502Z,-3.9
2018-12-15T01:37:23.382Z,-3.9
2018-12-15T01:38:23.288Z,-3.9
2018-12-15T01:39:23.198Z,-3.9
2018-12-15T01:40:23.104Z,-3.9
2018-12-15T01:41:26.168Z,-3.9
2018-12-15T01:42:26.108Z,-3.9
2018-12-15T01:43:26.005Z,-3.9
2018-12-15T01:44:25.895Z,-4
2018-12-15T01:45:25.792Z,-4
2018-12-15T01:46:25.682Z,-4
2018-12-15T01:47:27.687Z,-4
2018-12-15T01:48:27.584Z,-4
2018-12-15T01:49:27.465Z,-4.1
2018-12-15T01:50:27.384Z,-4
2018-12-15T01:51:27.684Z,-4.1
2018-12-15T01:52:27.562Z,-4.1
2018-12-15T01:53:27.459Z,-4
2018-12-15T01:54:27.340Z,-4
2018-12-15T01:55:27.274Z,-3.9
2018-12-15T01:56:27.179Z,-4
2018-12-15T01:57:27.072Z,-4
2018-12-15T01:58:26.958Z,-3.9
2018-12-15T01:59:26.833Z,-3.9
2018-12-15T02:00:26.727Z,-3.9
2018-12-15T02:01:27.049Z,-4
2018-12-15T02:02:26.948Z,-3.9
2018-12-15T02:03:26.845Z,-3.9
2018-12-15T02:04:26.737Z,-3.9
2018-12-15T02:05:26.613Z,-3.9
2018-12-15T02:06:26.495Z,-3.9
2018-12-15T02:07:26.429Z,-3.9
2018-12-15T02:08:26.298Z,-3.9
2018-12-15T02:09:26.175Z,-4
2018-12-15T02:10:26.075Z,-4
2018-12-15T02:11:26.401Z,-4
2018-12-15T02:21:33.623Z,-3.3
2018-12-15T02:22:33.521Z,-3.3
2018-12-15T02:23:33.426Z,-3.3
2018-12-15T02:24:33.308Z,-3.4
2018-12-15T02:25:33.218Z,-3.4
2018-12-15T02:26:33.096Z,-3.4
2018-12-15T02:27:32.965Z,-3.5
2018-12-15T02:28:32.863Z,-3.5
2018-12-15T02:29:32.735Z,-3.6
2018-12-15T02:30:32.620Z,-3.6
2018-12-15T02:31:32.930Z,-3.7
2018-12-15T02:32:32.819Z,-3.7
2018-12-15T02:33:32.709Z,-3.7
2018-12-15T02:34:32.637Z,-3.7
2018-12-15T02:35:32.533Z,-3.7
2018-12-15T02:36:32.419Z,-3.8
2018-12-15T02:37:32.533Z,-3.8
2018-12-15T02:38:32.427Z,-3.8
2018-12-15T02:39:32.333Z,-3.9
2018-12-15T02:40:32.245Z,-3.9
2018-12-15T02:41:32.539Z,-3.9
2018-12-15T02:42:32.451Z,-3.9
2018-12-15T02:43:32.337Z,-3.9
2018-12-15T02:44:32.225Z,-4
2018-12-15T02:45:32.157Z,-4
2018-12-15T02:46:32.058Z,-4
2018-12-15T02:47:31.958Z,-4
2018-12-15T02:48:31.848Z,-4.1
2018-12-15T02:49:31.754Z,-4.1
2018-12-15T02:50:31.904Z,-4
2018-12-15T02:51:32.207Z,-4.1
2018-12-15T02:52:32.101Z,-4.2
2018-12-15T02:53:32.001Z,-4.2
2018-12-15T02:54:31.903Z,-4.2
2018-12-15T02:55:31.821Z,-4.1
2018-12-15T02:56:31.763Z,-4.1
2018-12-15T02:57:31.671Z,-4.2
2018-12-15T02:58:31.558Z,-4.3
2018-12-15T02:59:31.466Z,-4.3
2018-12-15T03:00:31.387Z,-4.4
2018-12-15T03:01:31.716Z,-4.5
2018-12-15T03:02:31.605Z,-4.5
2018-12-15T03:03:31.512Z,-4.5
2018-12-15T03:04:31.429Z,-4.6
2018-12-15T03:05:31.332Z,-4.6
2018-12-15T03:06:31.241Z,-4.6
2018-12-15T03:07:31.144Z,-4.6
2018-12-15T03:08:31.148Z,-4.6
2018-12-15T03:09:31.034Z,-4.5
2018-12-15T03:10:30.935Z,-4.5
2018-12-15T03:11:31.268Z,-4.5
2018-12-15T03:31:27.090Z,-3.4
2018-12-15T03:32:27.049Z,-3.4
2018-12-15T03:33:26.975Z,-3.5
2018-12-15T03:34:26.871Z,-3.6
2018-12-15T03:35:26.758Z,-3.6
2018-12-15T03:36:26.709Z,-3.6
2018-12-15T03:37:26.601Z,-3.7
2018-12-15T03:38:26.517Z,-3.7
2018-12-15T03:39:26.421Z,-3.9
2018-12-15T03:40:26.303Z,-3.9
2018-12-15T03:41:26.595Z,-4.1
2018-12-15T03:42:26.470Z,-4.1
2018-12-15T03:43:26.358Z,-4.2
2018-12-15T03:44:26.288Z,-4.2
2018-12-15T03:45:26.174Z,-4.2
2018-12-15T03:46:26.058Z,-4.2
2018-12-15T03:47:26.114Z,-4.2
2018-12-15T03:48:26.020Z,-4.2
2018-12-15T03:49:25.968Z,-4.2
2018-12-15T03:50:25.894Z,-4.2
2018-12-15T03:51:26.280Z,-4.2
2018-12-15T03:52:26.187Z,-4.2
2018-12-15T03:53:26.085Z,-4.2
2018-12-15T03:54:26.244Z,-4.2
2018-12-15T03:55:26.129Z,-4.2
2018-12-15T03:56:26.318Z,-4.2
2018-12-15T03:57:26.206Z,-4.2
2018-12-15T03:58:26.116Z,-4.2
2018-12-15T03:59:26.012Z,-4.2
2018-12-15T04:00:25.933Z,-4.2
2018-12-15T04:01:26.286Z,-4.2
2018-12-15T04:02:26.186Z,-4.2
2018-12-15T04:03:26.104Z,-4.2
2018-12-15T04:04:26.254Z,-4.2
2018-12-15T04:05:26.185Z,-4.4
2018-12-15T04:06:26.190Z,-4.4
2018-12-15T04:07:26.135Z,-4.4
2018-12-15T04:08:26.328Z,-4.4
2018-12-15T04:09:26.295Z,-4.5
2018-12-15T04:10:26.258Z,-4.4
2018-12-15T04:11:26.612Z,-4.4
2018-12-15T04:12:26.501Z,-4.4
2018-12-15T04:13:26.406Z,-4.4
2018-12-15T04:14:26.289Z,-4.3
2018-12-15T04:15:26.188Z,-4.3
2018-12-15T04:16:26.330Z,-4.3
2018-12-15T04:17:26.211Z,-4.4
2018-12-15T04:18:26.315Z,-4.5
2018-12-15T04:19:26.248Z,-4.4
2018-12-15T04:20:26.144Z,-4.5
2018-12-15T04:21:26.502Z,-4.5
2018-12-15T04:31:24.669Z,-3.8
2018-12-15T04:32:24.579Z,-3.8
2018-12-15T04:33:24.498Z,-3.8
2018-12-15T04:34:24.390Z,-3.9
2018-12-15T04:35:24.309Z,-3.9
2018-12-15T04:36:24.215Z,-4
2018-12-15T04:37:24.202Z,-4
2018-12-15T04:38:24.119Z,-4
2018-12-15T04:39:24.016Z,-4.1
2018-12-15T04:40:23.899Z,-4.2
2018-12-15T04:41:24.221Z,-4.2
2018-12-15T04:42:24.104Z,-4.3
2018-12-15T04:43:24.048Z,-4.3
2018-12-15T04:44:23.938Z,-4.4
2018-12-15T04:45:23.828Z,-4.4
2018-12-15T04:46:23.721Z,-4.5
2018-12-15T04:47:23.614Z,-4.5
2018-12-15T04:48:23.503Z,-4.5
2018-12-15T04:49:23.409Z,-4.5
2018-12-15T04:50:23.285Z,-4.5
2018-12-15T04:51:23.609Z,-4.6
2018-12-15T04:52:23.517Z,-4.6
2018-12-15T04:53:23.402Z,-4.7
2018-12-15T04:54:23.299Z,-4.7
2018-12-15T04:55:23.189Z,-4.8
2018-12-15T04:56:23.079Z,-4.8
2018-12-15T04:57:22.944Z,-4.9
2018-12-15T04:58:22.831Z,-4.8
2018-12-15T04:59:22.766Z,-4.8
2018-12-15T05:00:22.673Z,-4.8
2018-12-15T05:01:22.998Z,-4.8
2018-12-15T05:02:22.881Z,-4.7
2018-12-15T05:03:23.594Z,-4.7
2018-12-15T05:04:23.519Z,-4.6
2018-12-15T05:05:23.424Z,-4.6
2018-12-15T05:06:23.305Z,-4.5
2018-12-15T05:07:23.459Z,-4.5
2018-12-15T05:08:23.348Z,-4.5
2018-12-15T05:09:23.246Z,-4.5
2018-12-15T05:10:23.153Z,-4.5
2018-12-15T05:11:23.717Z,-4.5
2018-12-15T05:12:23.631Z,-4.6
2018-12-15T05:13:23.522Z,-4.6
2018-12-15T05:14:23.425Z,-4.5
2018-12-15T05:15:23.562Z,-4.6
2018-12-15T05:16:23.483Z,-4.5
2018-12-15T05:17:23.409Z,-4.5
2018-12-15T05:18:23.295Z,-4.6
2018-12-15T05:19:23.200Z,-4.6
2018-12-15T05:20:23.087Z,-4.7
2018-12-15T05:21:23.410Z,-4.7
2018-12-15T05:22:23.299Z,-4.7
2018-12-15T05:23:23.203Z,-4.7
2018-12-15T05:24:23.123Z,-4.7
2018-12-15T05:25:23.015Z,-4.8
2018-12-15T05:26:22.900Z,-4.8
2018-12-15T05:27:22.826Z,-4.8
2018-12-15T05:28:22.710Z,-4.8
2018-12-15T05:29:22.622Z,-4.7
2018-12-15T05:30:22.512Z,-4.7
2018-12-15T05:31:22.852Z,-4.7
2018-12-15T05:41:20.905Z,-4.3
2018-12-15T05:42:20.791Z,-4.3
2018-12-15T05:43:20.710Z,-4.2
2018-12-15T05:44:20.600Z,-4.3
2018-12-15T05:45:20.492Z,-4.3
2018-12-15T05:46:20.388Z,-4.3
2018-12-15T05:47:20.281Z,-4.3
2018-12-15T05:48:25.999Z,-4.3
2018-12-15T05:49:25.905Z,-4.3
2018-12-15T05:50:25.794Z,-4.3
2018-12-15T05:51:26.113Z,-4.2
2018-12-15T05:52:26.018Z,-4.3
2018-12-15T05:53:25.937Z,-4.3
2018-12-15T05:54:25.876Z,-4.3
2018-12-15T05:55:25.774Z,-4.3
2018-12-15T05:56:25.654Z,-4.3
2018-12-15T05:57:25.632Z,-4.3
2018-12-15T05:58:25.531Z,-4.3
2018-12-15T05:59:25.428Z,-4.4
2018-12-15T06:00:25.317Z,-4.4
2018-12-15T06:01:25.643Z,-4.3
2018-12-15T06:11:23.855Z,-3.7
2018-12-15T06:12:23.743Z,-3.7
2018-12-15T06:13:23.662Z,-3.7
2018-12-15T06:14:23.552Z,-3.7
2018-12-15T06:15:23.476Z,-3.7
2018-12-15T06:16:23.382Z,-3.8
2018-12-15T06:17:23.285Z,-3.8
2018-12-15T06:18:23.163Z,-3.9
2018-12-15T06:19:23.062Z,-4.1
2018-12-15T06:20:22.953Z,-4.1
2018-12-15T06:21:23.285Z,-4.2
2018-12-15T06:22:23.226Z,-4.3
2018-12-15T06:23:23.123Z,-4.2
2018-12-15T06:41:20.296Z,-3.4
2018-12-15T06:42:20.199Z,-3.5
2018-12-15T06:43:20.175Z,-3.5
2018-12-15T06:44:20.091Z,-3.5
2018-12-15T06:45:19.990Z,-3.6
2018-12-15T06:46:19.888Z,-3.6
2018-12-15T06:47:19.795Z,-3.7
2018-12-15T06:48:19.694Z,-3.7
2018-12-15T06:49:19.589Z,-3.8
2018-12-15T06:50:19.471Z,-3.9
2018-12-15T06:51:19.777Z,-4
2018-12-15T06:52:19.651Z,-4
2018-12-15T06:53:19.568Z,-4
2018-12-15T06:54:19.470Z,-4
2018-12-15T06:55:19.357Z,-4
2018-12-15T06:56:19.247Z,-4
2018-12-15T06:57:19.201Z,-4.1
2018-12-15T06:58:19.117Z,-4.2
2018-12-15T06:59:18.994Z,-4.4
2018-12-15T07:00:18.885Z,-4.5
2018-12-15T07:01:19.187Z,-4.5
2018-12-15T07:02:19.066Z,-4.6
2018-12-15T07:03:18.974Z,-4.6
2018-12-15T07:04:18.851Z,-4.6
2018-12-15T07:05:18.756Z,-4.6
2018-12-15T07:06:21.550Z,-4.6
2018-12-15T07:07:21.450Z,-4.7
2018-12-15T07:08:21.377Z,-4.6
2018-12-15T07:09:21.281Z,-4.6
2018-12-15T07:10:21.378Z,-4.7
2018-12-15T07:11:21.711Z,-4.7
2018-12-15T07:12:21.600Z,-4.7
2018-12-15T07:13:21.501Z,-4.8
2018-12-15T07:14:21.419Z,-4.8
2018-12-15T07:15:21.309Z,-4.9
2018-12-15T07:16:21.451Z,-5
2018-12-15T07:17:21.349Z,-5
2018-12-15T07:18:21.273Z,-5
2018-12-15T07:19:21.165Z,-5
2018-12-15T07:20:21.297Z,-4.9
2018-12-15T07:21:21.637Z,-4.9
2018-12-15T07:22:21.513Z,-4.9
2018-12-15T07:23:21.403Z,-4.9
2018-12-15T07:24:21.303Z,-4.8
2018-12-15T07:25:21.192Z,-4.9
2018-12-15T07:26:21.085Z,-4.8
2018-12-15T07:27:20.971Z,-4.8
2018-12-15T07:28:20.859Z,-4.9
2018-12-15T07:29:20.740Z,-4.9
2018-12-15T07:30:20.660Z,-4.8
2018-12-15T07:31:20.975Z,-4.9
2018-12-15T07:32:20.854Z,-5
2018-12-15T07:33:20.752Z,-5
2018-12-15T07:34:20.660Z,-5
2018-12-15T07:35:20.611Z,-4.9
2018-12-15T07:36:20.537Z,-5
2018-12-15T07:37:20.425Z,-5
2018-12-15T07:38:20.323Z,-4.9
2018-12-15T07:39:20.207Z,-4.9
2018-12-15T07:40:20.095Z,-4.9
2018-12-15T07:41:20.453Z,-4.8
2018-12-15T07:42:20.433Z,-4.9
2018-12-15T07:43:20.325Z,-4.9
2018-12-15T07:44:20.236Z,-4.9
2018-12-15T07:45:20.145Z,-4.9
2018-12-15T07:46:20.053Z,-4.8
2018-12-15T07:47:19.980Z,-4.9
2018-12-15T07:48:19.884Z,-5
2018-12-15T07:49:19.793Z,-5
2018-12-15T07:50:19.677Z,-4.9
2018-12-15T07:51:19.982Z,-4.9
2018-12-15T07:52:19.878Z,-4.9
2018-12-15T07:53:19.772Z,-4.8
2018-12-15T07:54:19.655Z,-4.8
2018-12-15T07:55:19.543Z,-4.8
2018-12-15T07:56:19.445Z,-4.9
2018-12-15T07:57:19.337Z,-4.8
2018-12-15T07:58:19.240Z,-4.8
2018-12-15T07:59:19.123Z,-4.9
2018-12-15T08:00:19.009Z,-4.9
2018-12-15T08:01:19.367Z,-4.8
2018-12-15T08:21:23.928Z,-4
2018-12-15T08:22:26.874Z,-4
2018-12-15T08:23:26.782Z,-4.1
2018-12-15T08:24:26.708Z,-4.2
2018-12-15T08:25:26.619Z,-4.3
2018-12-15T08:26:26.506Z,-4.3
2018-12-15T08:27:26.395Z,-4.4
2018-12-15T08:28:26.286Z,-4.4
2018-12-15T08:29:26.177Z,-4.4
2018-12-15T08:30:26.107Z,-4.5
2018-12-15T08:31:26.674Z,-4.5
2018-12-15T08:32:26.571Z,-4.6
2018-12-15T09:01:20.853Z,-3.5
2018-12-15T09:02:20.807Z,-3.5
2018-12-15T09:03:20.690Z,-3.5
2018-12-15T09:04:20.581Z,-3.6
2018-12-15T09:05:20.449Z,-3.7
2018-12-15T09:06:20.323Z,-3.7
2018-12-15T09:07:20.227Z,-3.9
2018-12-15T09:08:20.117Z,-3.9
2018-12-15T09:09:20.004Z,-3.9
2018-12-15T09:10:19.895Z,-3.9
2018-12-15T09:11:20.227Z,-3.9
2018-12-15T09:12:20.164Z,-4
2018-12-15T09:13:20.052Z,-4
2018-12-15T09:14:19.933Z,-4
2018-12-15T09:15:19.810Z,-4.1
2018-12-15T09:16:26.194Z,-4.1
2018-12-15T09:17:26.740Z,-4.2
2018-12-15T09:18:26.631Z,-4.2
2018-12-15T09:19:26.530Z,-4.3
2018-12-15T09:20:26.412Z,-4.3
2018-12-15T09:21:26.943Z,-4.4
2018-12-15T09:22:26.835Z,-4.4
2018-12-15T09:23:26.773Z,-4.3
2018-12-15T09:24:26.652Z,-4.3
2018-12-15T09:25:26.574Z,-4.3
2018-12-15T09:26:26.476Z,-4.3
2018-12-15T09:27:26.371Z,-4.3
2018-12-15T09:28:26.297Z,-4.3
2018-12-15T09:29:26.190Z,-4.3
2018-12-15T09:30:26.318Z,-4.3
2018-12-15T09:31:26.649Z,-4.3
2018-12-15T09:32:26.589Z,-4.4
2018-12-15T09:33:26.483Z,-4.3
2018-12-15T09:34:26.388Z,-4.3
2018-12-15T09:35:26.294Z,-4.2
2018-12-15T09:36:26.175Z,-4.3
2018-12-15T09:37:26.085Z,-4.2
2018-12-15T09:38:25.974Z,-4.2
2018-12-15T09:39:25.935Z,-4.3
2018-12-15T09:40:25.810Z,-4.3
2018-12-15T09:41:26.349Z,-4.2
2018-12-15T09:51:24.533Z,-3.7
2018-12-15T09:52:24.432Z,-3.7
2018-12-15T09:53:24.339Z,-3.7
2018-12-15T09:54:24.277Z,-3.7
2018-12-15T09:55:24.155Z,-3.7
2018-12-15T09:56:24.057Z,-3.7
2018-12-15T09:57:23.947Z,-3.7
2018-12-15T09:58:23.835Z,-3.7
2018-12-15T09:59:23.747Z,-3.7
2018-12-15T10:00:23.659Z,-3.8
2018-12-15T10:01:23.995Z,-3.8
2018-12-15T10:11:21.906Z,-3.2
2018-12-15T10:12:21.826Z,-3.2
2018-12-15T10:13:21.705Z,-3.2
2018-12-15T10:14:21.605Z,-3.3
2018-12-15T10:15:21.492Z,-3.3
2018-12-15T10:16:21.386Z,-3.3
2018-12-15T10:17:21.278Z,-3.4
2018-12-15T10:18:21.230Z,-3.4
2018-12-15T10:19:25.009Z,-3.3
2018-12-15T10:20:24.909Z,-3.3
2018-12-15T10:21:25.247Z,-3.3
2018-12-15T10:22:25.119Z,-3.3
2018-12-15T10:23:25.038Z,-3.3
2018-12-15T10:24:24.942Z,-3.3
2018-12-15T10:25:25.057Z,-3.3
2018-12-15T10:26:24.937Z,-3.3
2018-12-15T10:27:25.062Z,-3.3
2018-12-15T10:28:25.126Z,-3.3
2018-12-15T10:29:25.051Z,-3.2
2018-12-15T10:30:24.944Z,-3.2
2018-12-15T10:31:25.240Z,-3.1
2018-12-15T10:32:25.119Z,-3
2018-12-15T10:41:23.290Z,-1.9
2018-12-15T10:42:23.190Z,-1.9
2018-12-15T10:43:23.138Z,-2
2018-12-15T10:44:23.040Z,-2.1
2018-12-15T10:45:22.922Z,-2.1
2018-12-15T10:46:22.816Z,-2.1
2018-12-15T10:47:22.716Z,-2.1
2018-12-15T10:48:22.604Z,-2.1
2018-12-15T10:49:22.499Z,-2.1
2018-12-15T10:50:22.425Z,-2.2
2018-12-15T10:51:22.762Z,-2.3
2018-12-15T10:52:22.668Z,-2.2
2018-12-15T10:53:22.560Z,-2.2
2018-12-15T10:54:22.449Z,-2.1
2018-12-15T10:55:22.334Z,-2
2018-12-15T10:56:22.252Z,-2
2018-12-15T10:57:22.144Z,-1.9
2018-12-15T10:58:22.024Z,-1.9
2018-12-15T10:59:21.912Z,-1.9
2018-12-15T11:00:21.816Z,-2
2018-12-15T11:01:22.155Z,-1.9
2018-12-15T11:02:22.090Z,-2
2018-12-15T11:03:21.978Z,-2.1
2018-12-15T11:04:21.852Z,-2
2018-12-15T11:05:21.749Z,-2
2018-12-15T11:06:21.652Z,-2
2018-12-15T11:07:21.539Z,-2
2018-12-15T11:08:21.428Z,-2
2018-12-15T11:09:21.322Z,-2
2018-12-15T11:10:21.204Z,-2
2018-12-15T11:11:21.547Z,-2.1
2018-12-15T11:12:21.442Z,-2.1
2018-12-15T11:13:21.331Z,-2.1
2018-12-15T11:14:21.234Z,-2
2018-12-15T11:15:21.120Z,-2
2018-12-15T11:16:21.102Z,-2
2018-12-15T11:17:20.980Z,-2.1
2018-12-15T11:18:20.862Z,-2.2
2018-12-15T11:19:20.744Z,-2.2
2018-12-15T11:20:20.640Z,-2.2
2018-12-15T11:21:20.955Z,-2.2
2018-12-15T11:22:20.879Z,-2.2
2018-12-15T11:23:20.775Z,-2.2
2018-12-15T11:24:20.649Z,-2.1
2018-12-15T11:25:20.530Z,-2.1
2018-12-15T11:26:20.415Z,-2.1
2018-12-15T11:27:20.295Z,-2
2018-12-15T11:28:20.214Z,-2.1
2018-12-15T11:29:20.153Z,-2
2018-12-15T11:30:20.039Z,-2
2018-12-15T11:31:20.378Z,-1.9
2018-12-15T11:32:20.265Z,-1.9
2018-12-15T11:33:20.190Z,-2
2018-12-15T11:34:20.073Z,-2
2018-12-15T11:35:20.007Z,-2.1
2018-12-15T11:36:19.919Z,-2.2
2018-12-15T11:37:19.804Z,-2.1
2018-12-15T11:38:19.718Z,-2.2
2018-12-15T11:39:19.606Z,-2.3
2018-12-15T11:40:19.506Z,-2.2
2018-12-15T11:41:19.827Z,-2.3
2018-12-15T11:42:19.719Z,-2.3
2018-12-15T11:43:19.598Z,-2.3
2018-12-15T11:44:19.519Z,-2.4
2018-12-15T11:45:19.407Z,-2.4
2018-12-15T11:46:19.307Z,-2.4
2018-12-15T11:47:19.208Z,-2.4
2018-12-15T11:48:19.113Z,-2.4
2018-12-15T11:49:19.007Z,-2.4
2018-12-15T11:50:18.903Z,-2.4
2018-12-15T11:51:19.219Z,-2.4
2018-12-15T11:52:19.113Z,-2.4
2018-12-15T11:53:19.007Z,-2.4
2018-12-15T11:54:18.887Z,-2.3
2018-12-15T11:55:18.811Z,-2.4
2018-12-15T11:56:18.715Z,-2.3
2018-12-15T11:57:18.628Z,-2.3
2018-12-15T11:58:18.554Z,-2.3
2018-12-15T11:59:18.451Z,-2.4
2018-12-15T12:00:18.330Z,-2.4
2018-12-15T12:01:19.664Z,-2.4
2018-12-15T12:02:19.533Z,-2.4
2018-12-15T12:03:19.412Z,-2.4
2018-12-15T12:04:19.311Z,-2.4
2018-12-15T12:05:19.207Z,-2.4
2018-12-15T12:06:19.139Z,-2.4
2018-12-15T12:07:19.062Z,-2.3
2018-12-15T12:08:18.936Z,-2.3
2018-12-15T12:09:18.834Z,-2.3
2018-12-15T12:10:18.716Z,-2.3
2018-12-15T12:11:19.009Z,-2.3
2018-12-15T12:12:18.920Z,-2.3
2018-12-15T12:13:18.828Z,-2.3
2018-12-15T12:14:18.711Z,-2.3
2018-12-15T12:15:18.607Z,-2.3
2018-12-15T12:16:18.492Z,-2.3
2018-12-15T12:17:18.374Z,-2.3
2018-12-15T12:18:18.275Z,-2.3
2018-12-15T12:19:18.177Z,-2.3
2018-12-15T12:20:18.075Z,-2.3
2018-12-15T12:21:18.448Z,-2.4
2018-12-15T12:22:18.352Z,-2.4
2018-12-15T12:23:18.258Z,-2.3
2018-12-15T12:24:18.162Z,-2.4
2018-12-15T12:25:18.049Z,-2.4
2018-12-15T12:26:17.959Z,-2.4
2018-12-15T12:27:17.841Z,-2.3
2018-12-15T12:28:17.757Z,-2.3
2018-12-15T12:29:17.654Z,-2.3
2018-12-15T12:30:17.541Z,-2.2
2018-12-15T12:31:17.882Z,-2.3
2018-12-15T12:32:17.781Z,-2.3
2018-12-15T12:41:15.919Z,-1.6
2018-12-15T12:42:15.828Z,-1.6
2018-12-15T12:43:15.719Z,-1.6
2018-12-15T12:44:15.598Z,-1.7
2018-12-15T12:45:15.506Z,-1.7
2018-12-15T12:46:15.389Z,-1.7
2018-12-15T12:47:18.264Z,-1.9
2018-12-15T12:48:18.166Z,-1.8
2018-12-15T12:49:18.059Z,-1.9
2018-12-15T12:50:18.004Z,-1.9
2018-12-15T12:51:18.338Z,-1.9
2018-12-15T12:52:18.242Z,-1.9
2018-12-15T12:53:18.141Z,-2
2018-12-15T12:54:18.022Z,-2
2018-12-15T12:55:17.922Z,-2.1
2018-12-15T12:56:17.820Z,-2
2018-12-15T12:57:17.710Z,-2.1
2018-12-15T12:58:17.606Z,-2.1
2018-12-15T12:59:17.506Z,-2
2018-12-15T13:00:17.406Z,-2
2018-12-15T13:01:17.722Z,-2
2018-12-15T13:02:17.614Z,-2
2018-12-15T13:03:17.500Z,-2
2018-12-15T13:04:17.390Z,-2.1
2018-12-15T13:05:17.292Z,-2.1
2018-12-15T13:06:17.196Z,-2.1
2018-12-15T13:07:17.122Z,-2.1
2018-12-15T13:08:17.004Z,-2.1
2018-12-15T13:09:16.898Z,-2.2
2018-12-15T13:10:16.850Z,-2.1
2018-12-15T13:11:17.170Z,-2.1
2018-12-15T13:12:17.286Z,-2.1
2018-12-15T13:21:15.742Z,-1.6
2018-12-15T13:22:15.646Z,-1.6
2018-12-15T13:23:15.542Z,-1.6
2018-12-15T13:24:15.479Z,-1.7
2018-12-15T13:25:15.417Z,-1.8
2018-12-15T13:26:15.338Z,-1.9
2018-12-15T13:27:15.254Z,-1.8
2018-12-15T13:28:15.151Z,-1.8
2018-12-15T13:29:15.078Z,-1.8
2018-12-15T13:30:14.964Z,-1.8
2018-12-15T13:31:15.304Z,-1.9
2018-12-15T13:32:15.196Z,-1.8
2018-12-15T13:33:15.096Z,-2.1
2018-12-15T13:34:14.980Z,-2.1
2018-12-15T13:35:14.897Z,-2
2018-12-15T13:36:14.801Z,-2
2018-12-15T13:37:14.697Z,-2
2018-12-15T13:38:14.587Z,-2
2018-12-15T13:39:14.474Z,-2
2018-12-15T13:40:14.398Z,-2.1
2018-12-15T13:41:14.723Z,-2.1
2018-12-15T13:42:14.609Z,-2
2018-12-15T13:43:14.518Z,-2
2018-12-15T13:44:14.427Z,-2
2018-12-15T13:45:14.318Z,-2.1
2018-12-15T13:46:14.287Z,-2.1
2018-12-15T13:47:14.169Z,-2.2
2018-12-15T13:48:14.075Z,-2.2
2018-12-15T13:49:13.967Z,-2.3
2018-12-15T13:50:13.885Z,-2.2
2018-12-15T13:51:14.189Z,-2.2
2018-12-15T13:52:14.104Z,-2.2
2018-12-15T14:01:15.109Z,-1.5
2018-12-15T14:02:15.017Z,-1.5
2018-12-15T14:03:14.903Z,-1.5
2018-12-15T14:04:14.815Z,-1.6
2018-12-15T14:05:14.688Z,-1.7
2018-12-15T14:06:14.567Z,-1.7
2018-12-15T14:07:14.530Z,-1.7
2018-12-15T14:08:14.437Z,-1.7
2018-12-15T14:09:14.334Z,-1.7
2018-12-15T14:10:14.261Z,-1.8
2018-12-15T14:11:14.607Z,-1.8
2018-12-15T14:12:14.499Z,-1.8
2018-12-15T14:21:17.702Z,-1.4
2018-12-15T14:22:17.638Z,-1.4
2018-12-15T14:23:17.517Z,-1.5
2018-12-15T14:24:17.439Z,-1.6
2018-12-15T14:25:17.335Z,-1.6
2018-12-15T14:26:17.231Z,-1.7
2018-12-15T14:27:17.127Z,-1.8
2018-12-15T14:28:17.014Z,-1.8
2018-12-15T14:29:16.901Z,-1.8
2018-12-15T14:30:16.826Z,-1.8
2018-12-15T14:31:17.150Z,-1.9
2018-12-15T14:32:17.055Z,-1.9
2018-12-15T14:33:16.944Z,-2
2018-12-15T14:34:16.833Z,-2
2018-12-15T14:35:16.765Z,-2
2018-12-15T14:36:16.679Z,-2
2018-12-15T14:37:16.567Z,-2
2018-12-15T14:38:16.466Z,-2.1
2018-12-15T14:39:16.370Z,-2.1
2018-12-15T14:40:16.263Z,-2.1
2018-12-15T14:41:16.681Z,-2.2
2018-12-15T14:42:16.582Z,-2.3
2018-12-15T14:43:16.474Z,-2.3
2018-12-15T14:44:16.365Z,-2.3
2018-12-15T14:45:16.263Z,-2.3
2018-12-15T14:46:16.239Z,-2.4
2018-12-15T14:47:16.140Z,-2.3
2018-12-15T14:48:16.039Z,-2.3
2018-12-15T14:49:15.939Z,-2.3
2018-12-15T14:50:15.857Z,-2.3
2018-12-15T14:51:16.207Z,-2.4
2018-12-15T14:52:16.093Z,-2.4
2018-12-15T14:53:16.004Z,-2.4
2018-12-15T14:54:15.887Z,-2.4
2018-12-15T14:55:15.769Z,-2.5
2018-12-15T14:56:15.673Z,-2.5
2018-12-15T14:57:15.602Z,-2.5
2018-12-15T14:58:15.501Z,-2.5
2018-12-15T14:59:15.390Z,-2.5
2018-12-15T15:00:15.322Z,-2.5
2018-12-15T15:01:15.640Z,-2.6
2018-12-15T15:02:15.635Z,-2.6
2018-12-15T15:03:15.534Z,-2.6
2018-12-15T15:04:15.424Z,-2.6
2018-12-15T15:05:15.328Z,-2.6
2018-12-15T15:06:15.242Z,-2.6
2018-12-15T15:07:15.145Z,-2.6
2018-12-15T15:08:15.081Z,-2.6
2018-12-15T15:09:14.973Z,-2.7
2018-12-15T15:10:14.913Z,-2.6
2018-12-15T15:11:15.260Z,-2.6
2018-12-15T15:12:15.369Z,-2.6
2018-12-15T15:13:15.268Z,-2.6
2018-12-15T15:14:15.171Z,-2.6
2018-12-15T15:15:15.088Z,-2.6
2018-12-15T15:16:14.993Z,-2.6
2018-12-15T15:17:14.879Z,-2.7
2018-12-15T15:18:14.763Z,-2.7
2018-12-15T15:19:14.678Z,-2.7
2018-12-15T15:20:14.551Z,-2.8
2018-12-15T15:21:14.865Z,-2.8
2018-12-15T15:22:14.763Z,-2.8
2018-12-15T15:31:12.999Z,-2.3
2018-12-15T15:32:12.907Z,-2.4
2018-12-15T15:33:12.872Z,-2.4
2018-12-15T15:34:12.792Z,-2.4
2018-12-15T15:35:12.696Z,-2.5
2018-12-15T15:36:12.619Z,-2.5
2018-12-15T15:37:12.529Z,-2.6
2018-12-15T15:38:12.438Z,-2.6
2018-12-15T15:39:12.325Z,-2.6
2018-12-15T15:40:12.445Z,-2.7
2018-12-15T15:41:12.779Z,-2.7
2018-12-15T15:42:12.681Z,-2.8
2018-12-15T15:43:12.561Z,-2.9
2018-12-15T15:44:12.441Z,-2.9
2018-12-15T15:45:12.342Z,-2.9
2018-12-15T15:46:12.251Z,-3
2018-12-15T15:47:12.158Z,-3
2018-12-15T15:48:12.046Z,-3
2018-12-15T15:49:11.957Z,-3.1
2018-12-15T15:50:11.856Z,-3.1
2018-12-15T15:51:12.184Z,-3.1
2018-12-15T15:52:12.140Z,-3.1
2018-12-15T15:53:12.042Z,-3.1
2018-12-15T15:54:11.943Z,-3.1
2018-12-15T15:55:11.830Z,-3.1
2018-12-15T15:56:11.722Z,-3.1
2018-12-15T15:57:11.634Z,-3.2
2018-12-15T15:58:11.768Z,-3.2
2018-12-15T15:59:11.668Z,-3.2
2018-12-15T16:00:11.561Z,-3.2
2018-12-15T16:01:11.877Z,-3.2
2018-12-15T16:02:11.763Z,-3.3
2018-12-15T16:03:11.684Z,-3.3
2018-12-15T16:04:11.579Z,-3.4
2018-12-15T16:05:11.492Z,-3.4
2018-12-15T16:06:11.378Z,-3.4
2018-12-15T16:07:11.265Z,-3.4
2018-12-15T16:08:11.162Z,-3.5
2018-12-15T16:09:11.055Z,-3.5
2018-12-15T16:10:10.971Z,-3.5
2018-12-15T16:11:11.330Z,-3.6
2018-12-15T16:12:11.215Z,-3.6
2018-12-15T16:13:11.126Z,-3.6
2018-12-15T16:14:11.010Z,-3.7
2018-12-15T16:15:10.890Z,-3.7
2018-12-15T16:16:10.790Z,-3.8
2018-12-15T16:17:10.679Z,-3.8
2018-12-15T16:18:10.571Z,-3.8
2018-12-15T16:19:10.492Z,-3.8
2018-12-15T16:20:10.393Z,-3.8
2018-12-15T16:21:13.457Z,-3.8
2018-12-15T16:22:13.342Z,-3.8
2018-12-15T16:23:13.258Z,-3.8
2018-12-15T16:24:13.186Z,-3.8
2018-12-15T16:25:13.085Z,-3.8
2018-12-15T16:26:12.987Z,-3.9
2018-12-15T16:27:12.889Z,-3.9
2018-12-15T16:28:12.787Z,-3.9
2018-12-15T16:29:12.683Z,-3.9
2018-12-15T16:30:12.594Z,-3.9
2018-12-15T16:31:15.523Z,-3.9
2018-12-15T16:32:15.485Z,-4
2018-12-15T16:33:15.392Z,-4
2018-12-15T16:34:15.297Z,-4
2018-12-15T16:35:15.216Z,-4
2018-12-15T16:36:15.340Z,-4
2018-12-15T16:37:15.239Z,-4
2018-12-15T16:38:15.130Z,-4
2018-12-15T16:39:15.042Z,-4